Time;durP1;ratioP1;P1;durP2;ratioP2;P2;SDS_P1;SDS_P2;PMS_P1;PMS_P2;Temp;Humidity;BMP_temperature;BMP_pressure;BME280_temperature;BME280_humidity;BME280_pressure;Samples;Min_cycle;Max_cycle;Signal;HPM_P1;HPM_P2
2023/03/05 00:01:10;;;;;;;6.43;4.30;;;;;;;;;;5016283;28;20088;-62
2023/03/05 00:03:35;;;;;;;6.00;3.75;;;;;;;;;;5015666;28;20034;-62
2023/03/05 00:06:01;;;;;;;6.47;3.90;;;;;;;;;;5015639;28;20036;-62
2023/03/05 00:08:27;;;;;;;5.10;3.90;;;;;;;;;;4997947;28;20042;-62
2023/03/05 00:10:56;;;;;;;8.90;4.80;;;;;;;;;;5015796;28;20046;-62
2023/03/05 00:13:21;;;;;;;6.25;3.90;;;;;;;;;;5015463;28;20041;-62
2023/03/05 00:15:47;;;;;;;9.68;4.82;;;;;;;;;;5015695;28;20037;-62
2023/03/05 00:18:12;;;;;;;9.95;5.03;;;;;;;;;;4997771;28;20065;-63
2023/03/05 00:20:38;;;;;;;7.53;5.10;;;;;;;;;;5015652;28;20036;-62
2023/03/05 00:23:03;;;;;;;7.95;5.03;;;;;;;;;;5015874;28;20519;-62
2023/03/05 00:25:28;;;;;;;7.45;3.40;;;;;;;;;;5015810;28;20034;-63
2023/03/05 00:27:53;;;;;;;3.78;3.08;;;;;;;;;;5015219;28;20453;-63
2023/03/05 00:30:19;;;;;;;4.95;3.13;;;;;;;;;;5015617;28;20042;-63
2023/03/05 00:32:44;;;;;;;4.32;3.00;;;;;;;;;;5015112;28;20038;-63
2023/03/05 00:35:09;;;;;;;3.47;2.80;;;;;;;;;;5015063;28;20041;-63
2023/03/05 00:37:35;;;;;;;7.40;3.40;;;;;;;;;;4997363;28;20076;-63
2023/03/05 00:40:00;;;;;;;4.20;2.90;;;;;;;;;;5015224;28;20087;-63
2023/03/05 00:42:25;;;;;;;9.65;5.68;;;;;;;;;;5014978;28;20447;-64
2023/03/05 00:44:51;;;;;;;13.25;6.65;;;;;;;;;;4997747;28;20085;-63
2023/03/05 00:47:17;;;;;;;9.35;5.40;;;;;;;;;;5043716;23;20506;-58
2023/03/05 00:49:42;;;;;;;6.68;4.32;;;;;;;;;;5040150;23;20432;-59
2023/03/05 00:52:08;;;;;;;11.75;6.65;;;;;;;;;;4995113;28;20043;-58
2023/03/05 00:54:33;;;;;;;14.57;6.45;;;;;;;;;;4995423;28;20177;-58
2023/03/05 00:56:59;;;;;;;11.00;5.88;;;;;;;;;;4995653;28;20022;-58
2023/03/05 00:59:24;;;;;;;9.02;4.78;;;;;;;;;;4993667;28;20042;-58
2023/03/05 01:01:49;;;;;;;7.32;4.30;;;;;;;;;;4994980;28;20030;-58
2023/03/05 01:04:15;;;;;;;8.13;4.30;;;;;;;;;;4994091;28;20133;-58
2023/03/05 01:06:43;;;;;;;6.70;3.60;;;;;;;;;;4994947;28;20046;-58
2023/03/05 01:09:09;;;;;;;7.82;4.10;;;;;;;;;;4994778;28;20050;-58
2023/03/05 01:11:34;;;;;;;5.28;3.70;;;;;;;;;;4994877;28;20088;-58
2023/03/05 01:13:59;;;;;;;6.20;3.60;;;;;;;;;;4994846;28;20026;-58
2023/03/05 01:16:25;;;;;;;5.40;3.20;;;;;;;;;;4993803;28;20482;-58
2023/03/05 01:18:50;;;;;;;4.32;3.13;;;;;;;;;;4994990;28;20029;-55
2023/03/05 01:21:15;;;;;;;7.07;2.78;;;;;;;;;;4994967;28;20050;-55
2023/03/05 01:23:41;;;;;;;5.15;2.88;;;;;;;;;;4977470;28;20034;-55
2023/03/05 01:26:09;;;;;;;4.10;2.92;;;;;;;;;;4993387;28;20117;-55
2023/03/05 01:28:35;;;;;;;5.25;2.70;;;;;;;;;;4993590;28;20114;-55
2023/03/05 01:31:00;;;;;;;5.68;3.03;;;;;;;;;;4994837;28;20122;-56
2023/03/05 01:33:26;;;;;;;5.28;3.22;;;;;;;;;;4994541;28;20031;-55
2023/03/05 01:35:51;;;;;;;4.07;3.05;;;;;;;;;;4994766;28;20124;-55
2023/03/05 01:38:16;;;;;;;4.80;3.10;;;;;;;;;;4993412;28;20538;-55
2023/03/05 01:40:42;;;;;;;6.30;3.28;;;;;;;;;;4993134;28;20497;-56
2023/03/05 01:43:11;;;;;;;4.75;3.10;;;;;;;;;;4994379;28;20177;-55
2023/03/05 01:45:36;;;;;;;6.45;3.20;;;;;;;;;;4993110;28;20433;-55
2023/03/05 01:48:02;;;;;;;8.82;3.45;;;;;;;;;;4976656;28;20474;-55
2023/03/05 01:50:27;;;;;;;4.82;3.20;;;;;;;;;;4992611;28;20042;-55
2023/03/05 01:53:01;;;;;;;6.88;3.60;;;;;;;;;;4994543;28;20065;-56
2023/03/05 01:55:27;;;;;;;4.97;3.35;;;;;;;;;;4994233;28;20081;-55
2023/03/05 01:58:00;;;;;;;6.07;3.25;;;;;;;;;;4977048;28;20045;-56
2023/03/05 02:00:41;;;;;;;3.40;3.10;;;;;;;;;;4992956;28;20038;-56
2023/03/05 02:03:08;;;;;;;4.90;3.10;;;;;;;;;;4994438;28;20038;-55
2023/03/05 02:05:34;;;;;;;6.85;4.25;;;;;;;;;;4994131;28;20052;-55
2023/03/05 02:08:01;;;;;;;15.25;8.80;;;;;;;;;;4994101;28;20502;-56
2023/03/05 02:10:31;;;;;;;21.60;11.57;;;;;;;;;;4994028;28;20046;-56
2023/03/05 02:12:58;;;;;;;19.25;11.73;;;;;;;;;;4980334;28;20038;-56
2023/03/05 02:15:24;;;;;;;8.73;4.63;;;;;;;;;;4998277;28;20049;-56
2023/03/05 02:17:49;;;;;;;6.25;3.83;;;;;;;;;;4998312;28;20038;-56
2023/03/05 02:20:19;;;;;;;7.53;4.13;;;;;;;;;;4980609;28;20045;-56
2023/03/05 02:22:44;;;;;;;4.35;3.10;;;;;;;;;;4998015;28;20035;-56
2023/03/05 02:25:14;;;;;;;7.90;4.32;;;;;;;;;;4998186;28;20482;-56
2023/03/05 02:27:43;;;;;;;9.10;4.68;;;;;;;;;;4980365;28;20038;-56
2023/03/05 02:30:11;;;;;;;;;;;;;;;;;;4981189;28;20026;-56
2023/03/05 02:32:36;;;;;;;10.93;5.53;;;;;;;;;;4997906;28;19916;-56
2023/03/05 02:35:02;;;;;;;9.40;5.10;;;;;;;;;;4964526;28;20265;-56
2023/03/05 02:37:27;;;;;;;11.25;4.75;;;;;;;;;;4980301;28;20039;-56
2023/03/05 02:39:53;;;;;;;11.10;5.75;;;;;;;;;;4980251;28;20038;-56
2023/03/05 02:42:18;;;;;;;14.48;6.80;;;;;;;;;;4980200;28;20045;-56
2023/03/05 02:44:44;;;;;;;14.35;6.70;;;;;;;;;;4980163;28;20046;-56
2023/03/05 02:47:09;;;;;;;14.15;6.70;;;;;;;;;;4997804;28;20378;-56
2023/03/05 02:49:34;;;;;;;15.15;7.40;;;;;;;;;;4981902;28;20046;-56
2023/03/05 02:52:00;;;;;;;15.10;6.53;;;;;;;;;;5017322;28;20061;-55
2023/03/05 02:54:25;;;;;;;13.85;6.25;;;;;;;;;;4999343;28;20037;-55
2023/03/05 02:56:50;;;;;;;17.33;7.65;;;;;;;;;;5015714;28;20116;-56
2023/03/05 02:59:16;;;;;;;18.92;8.55;;;;;;;;;;5017448;28;20413;-56
2023/03/05 03:01:41;;;;;;;15.85;7.93;;;;;;;;;;4999262;28;20045;-56
2023/03/05 03:04:07;;;;;;;15.93;7.32;;;;;;;;;;5015576;28;20574;-56
2023/03/05 03:06:32;;;;;;;15.95;7.85;;;;;;;;;;5016158;28;20469;-56
2023/03/05 03:08:57;;;;;;;19.83;7.85;;;;;;;;;;5016693;28;20046;-56
2023/03/05 03:11:22;;;;;;;16.20;7.55;;;;;;;;;;5016671;28;20070;-56
2023/03/05 03:13:48;;;;;;;15.00;7.55;;;;;;;;;;5017161;28;20038;-56
2023/03/05 03:16:14;;;;;;;9.57;5.05;;;;;;;;;;5017136;28;20119;-56
2023/03/05 03:18:40;;;;;;;7.35;4.18;;;;;;;;;;5016564;28;20046;-55
2023/03/05 03:21:06;;;;;;;8.55;4.32;;;;;;;;;;5015245;28;20106;-56
2023/03/05 03:23:32;;;;;;;7.00;4.50;;;;;;;;;;5015355;28;20026;-56
2023/03/05 03:25:57;;;;;;;6.47;4.10;;;;;;;;;;5016451;28;20398;-56
2023/03/05 03:28:23;;;;;;;6.07;3.90;;;;;;;;;;5016266;28;20029;-56
2023/03/05 03:30:48;;;;;;;5.93;3.90;;;;;;;;;;5016238;28;20037;-56
2023/03/05 03:33:14;;;;;;;8.65;4.45;;;;;;;;;;5016325;28;20394;-56
2023/03/05 03:35:39;;;;;;;9.30;5.05;;;;;;;;;;5015345;28;20462;-56
2023/03/05 03:38:04;;;;;;;9.70;4.85;;;;;;;;;;5015009;28;20034;-56
2023/03/05 03:40:29;;;;;;;11.40;5.00;;;;;;;;;;5016147;28;20435;-56
2023/03/05 03:42:55;;;;;;;9.32;5.45;;;;;;;;;;5016618;28;20045;-56
2023/03/05 03:45:21;;;;;;;10.10;5.20;;;;;;;;;;5016054;28;20473;-56
2023/03/05 03:47:50;;;;;;;13.60;5.78;;;;;;;;;;5016004;28;20037;-56
2023/03/05 03:50:16;;;;;;;11.70;5.47;;;;;;;;;;5015914;28;20545;-56
2023/03/05 03:52:41;;;;;;;10.02;5.55;;;;;;;;;;5016207;28;20128;-56
2023/03/05 03:55:07;;;;;;;8.30;4.70;;;;;;;;;;5016157;28;20108;-56
2023/03/05 03:57:32;;;;;;;7.20;4.47;;;;;;;;;;5015814;28;20379;-56
2023/03/05 03:59:58;;;;;;;7.28;4.32;;;;;;;;;;5016338;28;20047;-56
2023/03/05 04:02:23;;;;;;;7.60;4.32;;;;;;;;;;5015981;28;20049;-56
2023/03/05 04:04:48;;;;;;;8.52;5.13;;;;;;;;;;5015941;28;20042;-56
2023/03/05 04:07:13;;;;;;;11.15;6.20;;;;;;;;;;5015909;28;20038;-56
2023/03/05 04:09:39;;;;;;;8.45;5.78;;;;;;;;;;5014248;28;20030;-56
2023/03/05 04:12:04;;;;;;;9.35;5.30;;;;;;;;;;5015533;28;20122;-56
2023/03/05 04:14:29;;;;;;;8.80;4.57;;;;;;;;;;5015774;28;20136;-56
2023/03/05 04:16:55;;;;;;;7.90;4.60;;;;;;;;;;5015723;28;20093;-55
2023/03/05 04:19:20;;;;;;;10.05;5.68;;;;;;;;;;5015670;28;20042;-55
2023/03/05 04:21:46;;;;;;;10.98;6.22;;;;;;;;;;5015875;28;20033;-55
2023/03/05 04:24:11;;;;;;;9.32;6.38;;;;;;;;;;5015402;28;20060;-55
2023/03/05 04:26:36;;;;;;;11.18;5.88;;;;;;;;;;5015266;28;20050;-56
2023/03/05 04:29:02;;;;;;;9.73;5.70;;;;;;;;;;5015127;28;20037;-55
2023/03/05 04:31:27;;;;;;;11.20;5.22;;;;;;;;;;5015215;28;20485;-56
2023/03/05 04:33:52;;;;;;;11.52;5.05;;;;;;;;;;5014759;28;20042;-56
2023/03/05 04:36:17;;;;;;;8.90;5.03;;;;;;;;;;5015381;28;20041;-56
2023/03/05 04:38:43;;;;;;;8.90;4.30;;;;;;;;;;5015071;28;20117;-56
2023/03/05 04:41:08;;;;;;;7.57;4.70;;;;;;;;;;5015018;28;20048;-56
2023/03/05 04:43:33;;;;;;;8.07;4.15;;;;;;;;;;5015251;28;20058;-56
2023/03/05 04:45:59;;;;;;;7.88;5.28;;;;;;;;;;5014937;28;20359;-56
2023/03/05 04:48:24;;;;;;;7.40;4.30;;;;;;;;;;5015397;28;20037;-56
2023/03/05 04:50:50;;;;;;;8.77;4.93;;;;;;;;;;5015131;28;20046;-56
2023/03/05 04:53:15;;;;;;;7.85;5.35;;;;;;;;;;5015079;28;20449;-56
2023/03/05 04:55:41;;;;;;;8.13;4.80;;;;;;;;;;5014756;28;20049;-56
2023/03/05 04:58:06;;;;;;;7.47;4.13;;;;;;;;;;5014942;28;20038;-56
2023/03/05 05:00:32;;;;;;;7.68;3.78;;;;;;;;;;5014646;28;20500;-56
2023/03/05 05:02:57;;;;;;;8.82;4.35;;;;;;;;;;5015194;28;20037;-56
2023/03/05 05:05:24;;;;;;;7.25;4.20;;;;;;;;;;5014565;28;20475;-56
2023/03/05 05:07:49;;;;;;;10.25;4.45;;;;;;;;;;5014802;28;20041;-56
2023/03/05 05:10:15;;;;;;;8.07;4.57;;;;;;;;;;5014708;28;20461;-55
2023/03/05 05:12:40;;;;;;;9.20;4.43;;;;;;;;;;5014404;28;20038;-56
2023/03/05 05:15:06;;;;;;;6.28;4.05;;;;;;;;;;5014707;28;20042;-60
2023/03/05 05:17:32;;;;;;;7.68;4.20;;;;;;;;;;5014654;28;20470;-60
2023/03/05 05:19:58;;;;;;;6.35;4.07;;;;;;;;;;5014340;28;20077;-60
2023/03/05 05:22:24;;;;;;;7.78;3.70;;;;;;;;;;5014833;28;20077;-61
2023/03/05 05:24:49;;;;;;;6.90;3.85;;;;;;;;;;5013824;28;20120;-61
2023/03/05 05:27:16;;;;;;;5.40;3.58;;;;;;;;;;5012721;28;20146;-61
2023/03/05 05:29:41;;;;;;;7.00;3.45;;;;;;;;;;5013045;28;20108;-60
2023/03/05 05:32:13;;;;;;;3.80;2.90;;;;;;;;;;5013202;28;20474;-61
2023/03/05 05:34:39;;;;;;;3.60;2.83;;;;;;;;;;5013548;28;20045;-60
2023/03/05 05:37:04;;;;;;;4.78;3.22;;;;;;;;;;5013313;28;20041;-61
2023/03/05 05:39:29;;;;;;;4.85;3.30;;;;;;;;;;5011422;28;20383;-61
2023/03/05 05:41:55;;;;;;;3.88;3.42;;;;;;;;;;5013031;28;20046;-61
2023/03/05 05:44:21;;;;;;;3.80;3.35;;;;;;;;;;5013060;28;20030;-57
2023/03/05 05:46:46;;;;;;;4.22;3.30;;;;;;;;;;5012190;28;20118;-56
2023/03/05 05:49:11;;;;;;;5.45;3.88;;;;;;;;;;5012776;28;20045;-56
2023/03/05 05:51:36;;;;;;;5.80;3.78;;;;;;;;;;5011642;28;20125;-60
2023/03/05 05:54:02;;;;;;;4.43;3.30;;;;;;;;;;5013166;28;20437;-60
2023/03/05 05:56:34;;;;;;;5.97;3.83;;;;;;;;;;5013554;28;20034;-61
2023/03/05 05:58:59;;;;;;;4.78;3.25;;;;;;;;;;5013094;28;20124;-60
2023/03/05 06:01:27;;;;;;;4.75;2.90;;;;;;;;;;5012716;28;20069;-61
2023/03/05 06:03:52;;;;;;;5.90;3.53;;;;;;;;;;5012704;28;20117;-61
2023/03/05 06:06:19;;;;;;;5.22;3.50;;;;;;;;;;5012351;28;20080;-61
2023/03/05 06:08:45;;;;;;;7.60;3.90;;;;;;;;;;5012571;28;20034;-61
2023/03/05 06:11:10;;;;;;;6.38;3.80;;;;;;;;;;5012616;28;20287;-61
2023/03/05 06:13:36;;;;;;;5.22;3.83;;;;;;;;;;5012535;28;20034;-61
2023/03/05 06:16:04;;;;;;;7.40;3.58;;;;;;;;;;5012442;28;20034;-61
2023/03/05 06:18:29;;;;;;;7.75;5.15;;;;;;;;;;5012056;28;20045;-61
2023/03/05 06:20:59;;;;;;;6.55;4.15;;;;;;;;;;5012460;28;20038;-61
2023/03/05 06:23:25;;;;;;;6.38;4.22;;;;;;;;;;5011151;28;20445;-61
2023/03/05 06:25:50;;;;;;;7.25;5.00;;;;;;;;;;5012453;28;20500;-60
2023/03/05 06:28:16;;;;;;;7.72;5.07;;;;;;;;;;5012306;28;20096;-61
2023/03/05 06:30:41;;;;;;;10.98;5.68;;;;;;;;;;5012314;28;20038;-61
2023/03/05 06:33:07;;;;;;;9.65;6.00;;;;;;;;;;5012155;28;20667;-60
2023/03/05 06:35:32;;;;;;;9.98;6.03;;;;;;;;;;5012319;28;20038;-60
2023/03/05 06:37:57;;;;;;;11.20;6.45;;;;;;;;;;4994927;28;20041;-60
2023/03/05 06:40:23;;;;;;;12.30;7.50;;;;;;;;;;5012389;28;20547;-61
2023/03/05 06:42:48;;;;;;;12.85;7.97;;;;;;;;;;5012258;28;20038;-61
2023/03/05 06:45:13;;;;;;;12.45;8.35;;;;;;;;;;4994624;28;20371;-60
2023/03/05 06:47:39;;;;;;;16.02;8.30;;;;;;;;;;5010463;28;20050;-62
2023/03/05 06:50:05;;;;;;;12.07;7.75;;;;;;;;;;5011921;28;20046;-60
2023/03/05 06:52:30;;;;;;;10.55;7.20;;;;;;;;;;4994324;28;20030;-61
2023/03/05 06:54:55;;;;;;;11.43;7.20;;;;;;;;;;5012066;28;20041;-61
2023/03/05 06:57:21;;;;;;;10.02;6.47;;;;;;;;;;5013166;28;20505;-61
2023/03/05 06:59:46;;;;;;;19.98;11.32;;;;;;;;;;5015613;28;20029;-61
2023/03/05 07:02:13;;;;;;;13.55;7.70;;;;;;;;;;4998140;28;20030;-61
2023/03/05 07:04:38;;;;;;;14.05;7.50;;;;;;;;;;5016057;28;20056;-61
2023/03/05 07:07:04;;;;;;;11.93;7.30;;;;;;;;;;5015847;28;20045;-61
2023/03/05 07:09:29;;;;;;;11.75;7.00;;;;;;;;;;5015614;28;20030;-60
2023/03/05 07:11:55;;;;;;;36.65;22.83;;;;;;;;;;5016255;28;20030;-61
2023/03/05 07:14:20;;;;;;;18.05;11.82;;;;;;;;;;5016480;28;20535;-61
2023/03/05 07:16:46;;;;;;;18.65;10.18;;;;;;;;;;5016473;28;20092;-68
2023/03/05 07:19:11;;;;;;;13.07;7.07;;;;;;;;;;5016477;28;20038;-61
2023/03/05 07:21:36;;;;;;;11.25;6.90;;;;;;;;;;5016169;28;20083;-61
2023/03/05 07:24:03;;;;;;;14.73;8.30;;;;;;;;;;5016058;28;20046;-61
2023/03/05 07:26:29;;;;;;;14.43;8.35;;;;;;;;;;5016188;28;20033;-61
2023/03/05 07:28:55;;;;;;;13.13;8.30;;;;;;;;;;5016337;28;20045;-61
2023/03/05 07:31:22;;;;;;;16.17;8.30;;;;;;;;;;5016080;28;20034;-61
2023/03/05 07:33:48;;;;;;;12.40;7.35;;;;;;;;;;5015439;28;20133;-61
2023/03/05 07:36:14;;;;;;;15.07;8.68;;;;;;;;;;5016065;28;20034;-61
2023/03/05 07:38:39;;;;;;;16.95;8.60;;;;;;;;;;5015864;28;20045;-61
2023/03/05 07:41:06;;;;;;;12.52;8.57;;;;;;;;;;5016042;28;20128;-61
2023/03/05 07:43:31;;;;;;;13.63;8.23;;;;;;;;;;4997962;28;20440;-61
2023/03/05 07:45:57;;;;;;;14.80;8.90;;;;;;;;;;4997321;28;20153;-61
2023/03/05 07:48:22;;;;;;;14.90;8.82;;;;;;;;;;5015639;28;20034;-61
2023/03/05 07:50:48;;;;;;;12.63;6.88;;;;;;;;;;5015415;28;20096;-60
2023/03/05 07:53:13;;;;;;;10.75;6.63;;;;;;;;;;5015635;28;20042;-60
2023/03/05 07:55:45;;;;;;;14.60;7.72;;;;;;;;;;5015506;28;20034;-61
2023/03/05 07:58:12;;;;;;;15.93;8.88;;;;;;;;;;5015421;28;20057;-63
2023/03/05 08:00:39;;;;;;;14.60;8.13;;;;;;;;;;4997814;28;20385;-63
2023/03/05 08:03:04;;;;;;;11.73;6.55;;;;;;;;;;5015318;28;20494;-66
2023/03/05 08:05:30;;;;;;;7.63;5.72;;;;;;;;;;4998342;28;20038;-73
2023/03/05 08:07:55;;;;;;;12.27;7.43;;;;;;;;;;5015486;28;20413;-58
2023/03/05 08:10:20;;;;;;;9.73;6.10;;;;;;;;;;4996433;28;20125;-58
2023/03/05 08:12:46;;;;;;;8.98;5.70;;;;;;;;;;4997786;28;20030;-58
2023/03/05 08:15:11;;;;;;;15.38;7.72;;;;;;;;;;5014461;28;20038;-58
2023/03/05 08:17:36;;;;;;;14.65;7.03;;;;;;;;;;5014468;28;20048;-58
2023/03/05 08:20:04;;;;;;;13.57;7.55;;;;;;;;;;5014467;28;20112;-58
2023/03/05 08:22:33;;;;;;;11.57;7.15;;;;;;;;;;4996606;28;20472;-58
2023/03/05 08:24:58;;;;;;;8.00;5.35;;;;;;;;;;4997106;28;20057;-58
2023/03/05 08:27:24;;;;;;;8.73;5.40;;;;;;;;;;5015570;28;20042;-58
2023/03/05 08:29:49;;;;;;;10.57;6.22;;;;;;;;;;5015578;28;20117;-58
2023/03/05 08:32:14;;;;;;;13.60;7.88;;;;;;;;;;5015355;28;20362;-58
2023/03/05 08:34:40;;;;;;;11.35;6.70;;;;;;;;;;5015257;28;20034;-58
2023/03/05 08:37:07;;;;;;;12.77;6.70;;;;;;;;;;5014887;28;20398;-58
2023/03/05 08:39:33;;;;;;;16.13;9.20;;;;;;;;;;5015438;28;20034;-57
2023/03/05 08:41:58;;;;;;;15.90;9.55;;;;;;;;;;5014777;28;20425;-57
2023/03/05 08:44:24;;;;;;;10.20;6.43;;;;;;;;;;5014930;28;20050;-58
2023/03/05 08:46:49;;;;;;;10.73;7.03;;;;;;;;;;5014983;28;20113;-57
2023/03/05 08:49:14;;;;;;;9.77;6.22;;;;;;;;;;5014000;28;20075;-63
2023/03/05 08:51:40;;;;;;;11.98;7.18;;;;;;;;;;5013270;28;20073;-63
2023/03/05 08:54:06;;;;;;;9.77;6.47;;;;;;;;;;4995889;28;20042;-63
2023/03/05 08:56:32;;;;;;;9.48;6.70;;;;;;;;;;5014498;28;20030;-64
2023/03/05 08:58:58;;;;;;;15.60;8.45;;;;;;;;;;5014080;28;20087;-63
2023/03/05 09:01:23;;;;;;;15.82;9.63;;;;;;;;;;5014096;28;20478;-63
2023/03/05 09:03:49;;;;;;;9.80;6.72;;;;;;;;;;5013430;28;20038;-63
2023/03/05 09:06:14;;;;;;;9.98;7.00;;;;;;;;;;5013137;28;20053;-63
2023/03/05 09:08:40;;;;;;;8.82;5.00;;;;;;;;;;5013757;28;20390;-63
2023/03/05 09:11:06;;;;;;;6.80;5.18;;;;;;;;;;4996138;28;20041;-63
2023/03/05 09:13:32;;;;;;;12.73;8.43;;;;;;;;;;5013699;28;20110;-64
2023/03/05 09:15:59;;;;;;;8.35;6.22;;;;;;;;;;5013565;28;20068;-58
2023/03/05 09:18:25;;;;;;;8.23;5.63;;;;;;;;;;5014250;28;20042;-58
2023/03/05 09:20:51;;;;;;;9.38;5.38;;;;;;;;;;5014732;28;20088;-58
2023/03/05 09:23:16;;;;;;;9.48;6.03;;;;;;;;;;5014334;28;20452;-58
2023/03/05 09:25:41;;;;;;;7.05;5.78;;;;;;;;;;5014311;28;20125;-55
2023/03/05 09:28:07;;;;;;;10.80;7.68;;;;;;;;;;5014279;28;20556;-55
2023/03/05 09:30:34;;;;;;;11.43;7.50;;;;;;;;;;5014294;28;20077;-61
2023/03/05 09:32:59;;;;;;;11.45;8.07;;;;;;;;;;5014901;28;20045;-61
2023/03/05 09:35:26;;;;;;;10.38;7.20;;;;;;;;;;5014111;28;20030;-61
2023/03/05 09:37:51;;;;;;;11.30;7.90;;;;;;;;;;5014358;28;20040;-61
2023/03/05 09:40:17;;;;;;;14.98;10.45;;;;;;;;;;5014352;28;20042;-61
2023/03/05 09:42:43;;;;;;;10.20;7.93;;;;;;;;;;5014304;28;20153;-61
2023/03/05 09:45:23;;;;;;;12.30;8.02;;;;;;;;;;5014287;28;20176;-61
2023/03/05 09:47:48;;;;;;;10.82;7.53;;;;;;;;;;5014251;28;20049;-61
2023/03/05 09:50:23;;;;;;;10.23;7.97;;;;;;;;;;5013730;28;20038;-55
2023/03/05 09:52:56;;;;;;;9.63;6.57;;;;;;;;;;5014450;28;20041;-55
2023/03/05 09:55:34;;;;;;;11.27;8.38;;;;;;;;;;5014101;28;20042;-55
2023/03/05 09:58:03;;;;;;;12.30;9.10;;;;;;;;;;5014389;28;20041;-55
2023/03/05 10:00:33;;;;;;;11.70;7.30;;;;;;;;;;5013799;28;20041;-55
2023/03/05 10:02:59;;;;;;;9.35;6.95;;;;;;;;;;5014015;28;20493;-55
2023/03/05 10:05:29;;;;;;;9.77;7.43;;;;;;;;;;5014510;28;20029;-55
2023/03/05 10:08:00;;;;;;;13.02;9.10;;;;;;;;;;5013824;28;20136;-55
2023/03/05 10:10:26;;;;;;;10.63;6.88;;;;;;;;;;5013733;28;20081;-55
2023/03/05 10:12:58;;;;;;;9.50;6.68;;;;;;;;;;5013746;28;20033;-55
2023/03/05 10:15:29;;;;;;;9.70;6.97;;;;;;;;;;5013761;28;20100;-61
2023/03/05 10:18:13;;;;;;;11.63;7.75;;;;;;;;;;5013978;28;20150;-56
2023/03/05 10:20:52;;;;;;;9.50;6.45;;;;;;;;;;5013897;28;20052;-55
2023/03/05 10:23:36;;;;;;;8.30;6.10;;;;;;;;;;5013611;28;20030;-55
2023/03/05 10:26:17;;;;;;;10.48;6.63;;;;;;;;;;4996021;28;20132;-61
2023/03/05 10:28:50;;;;;;;10.60;7.25;;;;;;;;;;5014144;28;20042;-61
2023/03/05 10:31:34;;;;;;;12.70;7.72;;;;;;;;;;5013553;28;20041;-61
2023/03/05 10:34:21;;;;;;;10.85;7.97;;;;;;;;;;5000155;28;20040;-55
2023/03/05 10:37:10;;;;;;;12.32;7.72;;;;;;;;;;5017963;28;20038;-55
2023/03/05 10:39:56;;;;;;;14.77;8.10;;;;;;;;;;5017319;28;20041;-55
2023/03/05 10:42:42;;;;;;;12.23;8.55;;;;;;;;;;5017569;28;20409;-61
2023/03/05 10:45:14;;;;;;;15.77;9.43;;;;;;;;;;5027009;23;20053;-56
2023/03/05 10:48:03;;;;;;;9.70;5.70;;;;;;;;;;4993165;23;1078929;-56
2023/03/05 10:50:37;;;;;;;10.25;7.28;;;;;;;;;;4976595;28;20047;-55
2023/03/05 10:53:05;;;;;;;10.13;6.63;;;;;;;;;;4978224;28;20070;-55
2023/03/05 10:55:31;;;;;;;9.30;7.03;;;;;;;;;;4978002;28;20034;-55
2023/03/05 10:57:56;;;;;;;10.75;7.53;;;;;;;;;;4978497;28;20039;-55
2023/03/05 11:00:22;;;;;;;11.85;7.15;;;;;;;;;;4977896;28;20042;-55
2023/03/05 11:03:07;;;;;;;10.32;6.38;;;;;;;;;;4978005;28;20043;-55
2023/03/05 11:05:41;;;;;;;8.70;5.80;;;;;;;;;;4978029;28;20042;-55
2023/03/05 11:08:25;;;;;;;10.32;7.07;;;;;;;;;;4978316;28;20046;-55
2023/03/05 11:11:02;;;;;;;12.88;7.10;;;;;;;;;;4977889;28;20384;-55
2023/03/05 11:13:28;;;;;;;8.10;5.30;;;;;;;;;;4977958;28;20039;-55
2023/03/05 11:16:00;;;;;;;9.65;6.55;;;;;;;;;;4978173;28;20043;-55
2023/03/05 11:18:30;;;;;;;11.00;6.65;;;;;;;;;;4977841;28;20109;-55
2023/03/05 11:21:06;;;;;;;7.78;5.50;;;;;;;;;;4977799;28;20038;-55
2023/03/05 11:23:31;;;;;;;8.65;5.78;;;;;;;;;;4977411;28;20059;-55
2023/03/05 11:26:00;;;;;;;8.30;5.82;;;;;;;;;;4960042;28;20047;-55
2023/03/05 11:28:30;;;;;;;10.48;5.60;;;;;;;;;;4977642;28;20059;-55
2023/03/05 11:30:58;;;;;;;8.23;5.72;;;;;;;;;;4977588;28;20093;-55
2023/03/05 11:33:23;;;;;;;9.73;5.80;;;;;;;;;;4977571;28;20130;-55
2023/03/05 11:35:50;;;;;;;8.38;5.88;;;;;;;;;;4977524;28;20117;-55
2023/03/05 11:38:18;;;;;;;8.93;6.45;;;;;;;;;;4977501;28;20038;-55
2023/03/05 11:40:43;;;;;;;6.75;5.70;;;;;;;;;;4977135;28;20050;-55
2023/03/05 11:43:13;;;;;;;12.57;6.68;;;;;;;;;;4977003;28;20113;-55
2023/03/05 11:45:39;;;;;;;6.47;5.82;;;;;;;;;;4976432;28;20049;-55
2023/03/05 11:48:07;;;;;;;10.73;6.22;;;;;;;;;;4977063;28;20117;-55
2023/03/05 11:50:34;;;;;;;6.72;5.15;;;;;;;;;;4976908;28;20053;-55
2023/03/05 11:53:08;;;;;;;6.38;5.05;;;;;;;;;;4977137;28;20130;-55
2023/03/05 11:55:36;;;;;;;9.00;5.35;;;;;;;;;;4959572;28;20045;-55
2023/03/05 11:58:11;;;;;;;5.72;4.53;;;;;;;;;;4976857;28;20038;-55
2023/03/05 12:00:42;;;;;;;6.65;4.53;;;;;;;;;;4977110;28;20043;-55
2023/03/05 12:03:12;;;;;;;5.82;4.05;;;;;;;;;;4977070;28;20047;-55
2023/03/05 12:05:40;;;;;;;6.55;4.68;;;;;;;;;;4976975;28;20035;-55
2023/03/05 12:08:10;;;;;;;5.72;4.40;;;;;;;;;;4959680;28;20042;-55
2023/03/05 12:10:36;;;;;;;6.43;3.92;;;;;;;;;;4976586;28;20054;-55
2023/03/05 12:13:14;;;;;;;3.97;3.58;;;;;;;;;;4976865;28;20042;-55
2023/03/05 12:15:48;;;;;;;4.40;3.22;;;;;;;;;;4976851;28;20178;-55
2023/03/05 12:18:17;;;;;;;4.32;3.50;;;;;;;;;;4976789;28;20070;-55
2023/03/05 12:21:03;;;;;;;5.10;3.83;;;;;;;;;;4959473;28;20051;-55
2023/03/05 12:23:28;;;;;;;4.43;3.47;;;;;;;;;;4974666;28;20047;-55
2023/03/05 12:25:58;;;;;;;3.75;3.33;;;;;;;;;;4976881;28;20038;-55
2023/03/05 12:28:35;;;;;;;4.88;3.47;;;;;;;;;;4976851;28;20050;-55
2023/03/05 12:31:04;;;;;;;5.45;4.03;;;;;;;;;;4976493;28;20039;-55
2023/03/05 12:33:33;;;;;;;4.43;3.30;;;;;;;;;;4958884;28;20051;-55
2023/03/05 12:36:17;;;;;;;6.28;2.92;;;;;;;;;;4976372;28;20038;-55
2023/03/05 12:38:46;;;;;;;3.55;2.53;;;;;;;;;;4976207;28;20533;-55
2023/03/05 12:41:21;;;;;;;5.07;3.07;;;;;;;;;;4976722;28;20055;-55
2023/03/05 12:44:04;;;;;;;3.97;2.95;;;;;;;;;;4958683;28;20093;-55
2023/03/05 12:46:36;;;;;;;3.03;2.72;;;;;;;;;;4976255;28;20046;-55
2023/03/05 12:49:21;;;;;;;3.72;2.53;;;;;;;;;;4975634;28;20046;-55
2023/03/05 12:51:49;;;;;;;2.42;2.22;;;;;;;;;;4976139;28;20118;-55
2023/03/05 12:54:18;;;;;;;3.35;2.53;;;;;;;;;;4975992;28;20563;-55
2023/03/05 12:56:44;;;;;;;4.05;2.20;;;;;;;;;;4976006;28;20031;-55
2023/03/05 12:59:10;;;;;;;2.92;2.50;;;;;;;;;;4975700;28;20043;-55
2023/03/05 13:01:40;;;;;;;2.65;2.22;;;;;;;;;;4975972;28;20053;-55
2023/03/05 13:04:13;;;;;;;2.95;2.38;;;;;;;;;;4975938;28;20082;-55
2023/03/05 13:06:39;;;;;;;4.93;2.72;;;;;;;;;;4975588;28;20055;-55
2023/03/05 13:09:07;;;;;;;5.35;2.50;;;;;;;;;;4975617;28;20035;-55
2023/03/05 13:11:33;;;;;;;2.85;2.30;;;;;;;;;;4976039;28;20092;-55
2023/03/05 13:13:59;;;;;;;3.25;2.58;;;;;;;;;;4975504;28;20443;-55
2023/03/05 13:16:28;;;;;;;4.38;2.63;;;;;;;;;;4975715;28;20579;-55
2023/03/05 13:18:55;;;;;;;2.85;2.42;;;;;;;;;;4958008;28;20546;-55
2023/03/05 13:21:25;;;;;;;5.15;2.95;;;;;;;;;;4975314;28;20074;-55
2023/03/05 13:23:56;;;;;;;2.42;2.22;;;;;;;;;;4975564;28;20045;-55
2023/03/05 13:26:22;;;;;;;1.95;1.75;;;;;;;;;;4975283;28;20054;-55
2023/03/05 13:29:06;;;;;;;3.10;1.90;;;;;;;;;;4975783;28;20026;-55
2023/03/05 13:31:33;;;;;;;2.88;1.88;;;;;;;;;;4975538;28;20051;-55
2023/03/05 13:34:06;;;;;;;2.17;1.90;;;;;;;;;;4975173;28;20081;-55
2023/03/05 13:36:32;;;;;;;2.28;2.08;;;;;;;;;;4975361;28;20078;-55
2023/03/05 13:38:58;;;;;;;2.97;2.00;;;;;;;;;;4975437;28;20073;-55
2023/03/05 13:41:27;;;;;;;2.70;2.05;;;;;;;;;;4957719;28;20090;-55
2023/03/05 13:43:54;;;;;;;3.28;1.98;;;;;;;;;;4975237;28;20485;-55
2023/03/05 13:46:23;;;;;;;1.90;1.75;;;;;;;;;;4974979;28;20042;-55
2023/03/05 13:48:49;;;;;;;2.30;2.10;;;;;;;;;;4974924;28;20043;-55
2023/03/05 13:51:14;;;;;;;2.78;2.30;;;;;;;;;;4975099;28;20430;-55
2023/03/05 13:53:39;;;;;;;3.22;2.15;;;;;;;;;;4974830;28;20070;-55
2023/03/05 13:56:06;;;;;;;2.97;2.28;;;;;;;;;;4974873;28;20558;-55
2023/03/05 13:58:44;;;;;;;3.28;1.98;;;;;;;;;;4975139;28;20478;-55
2023/03/05 14:01:12;;;;;;;2.78;2.30;;;;;;;;;;4974059;28;20037;-58
2023/03/05 14:03:37;;;;;;;4.30;1.92;;;;;;;;;;4974837;28;20051;-57
2023/03/05 14:06:07;;;;;;;3.50;2.30;;;;;;;;;;4955618;28;20035;-58
2023/03/05 14:08:33;;;;;;;5.78;2.40;;;;;;;;;;4955853;28;20134;-58
2023/03/05 14:11:09;;;;;;;4.50;2.72;;;;;;;;;;4972993;28;20158;-57
2023/03/05 14:13:35;;;;;;;4.15;2.67;;;;;;;;;;4973138;28;20391;-58
2023/03/05 14:16:23;;;;;;;3.83;2.42;;;;;;;;;;4973037;28;20039;-58
2023/03/05 14:18:55;;;;;;;3.20;2.28;;;;;;;;;;4972792;28;20053;-58
2023/03/05 14:21:21;;;;;;;2.80;1.95;;;;;;;;;;4972774;28;20038;-58
2023/03/05 14:23:47;;;;;;;3.78;2.17;;;;;;;;;;4939275;28;20487;-55
2023/03/05 14:26:33;;;;;;;3.50;2.55;;;;;;;;;;4972906;28;20100;-55
2023/03/05 14:29:07;;;;;;;5.03;3.03;;;;;;;;;;4972477;28;20379;-55
2023/03/05 14:31:44;;;;;;;3.90;2.72;;;;;;;;;;4972748;28;20042;-58
2023/03/05 14:34:12;;;;;;;2.72;2.42;;;;;;;;;;4955599;28;20541;-58
2023/03/05 14:36:39;;;;;;;4.63;2.88;;;;;;;;;;4973500;28;20034;-58
2023/03/05 14:39:04;;;;;;;6.22;3.40;;;;;;;;;;4973013;28;20043;-58
2023/03/05 14:41:30;;;;;;;4.05;2.70;;;;;;;;;;4973568;28;20030;-55